Аэропорт: Абакан. Абакан

ICAO: UNAA

METAR:
2018/11/21 18:30
UNAA 211830Z 14002MPS CAVOK M05/M08 Q1019 R02/810060 NOSIG RMK QFE742
METAR:
2018/11/21 18:21
TAF UNAA 211654Z 2118/2218 15002MPS 3200 BR FU NSC 
      TEMPO 2118/2203 0300 FZFG FEW005 
      BECMG 2204/2206 9999 NSW SCT040